sensor_id;sensor_type;location;lat;lon;timestamp;pressure;altitude;pressure_sealevel;temperature;humidity
61128;BME280;47013;42.664;23.242;2023-11-21T00:01:40;93787.41;;;5.33;89.13
61128;BME280;47013;42.664;23.242;2023-11-21T00:04:05;93791.31;;;5.36;88.48
61128;BME280;47013;42.664;23.242;2023-11-21T00:06:32;93780.53;;;5.36;88.70
61128;BME280;47013;42.664;23.242;2023-11-21T00:08:58;93785.16;;;5.39;88.33
61128;BME280;47013;42.664;23.242;2023-11-21T00:11:23;93794.00;;;5.40;88.11
61128;BME280;47013;42.664;23.242;2023-11-21T00:13:50;93798.59;;;5.39;88.29
61128;BME280;47013;42.664;23.242;2023-11-21T00:16:15;93791.69;;;5.38;87.73
61128;BME280;47013;42.664;23.242;2023-11-21T00:18:41;93798.59;;;5.39;87.74
61128;BME280;47013;42.664;23.242;2023-11-21T00:21:06;93788.22;;;5.38;87.88
61128;BME280;47013;42.664;23.242;2023-11-21T00:23:32;93789.38;;;5.37;87.93
61128;BME280;47013;42.664;23.242;2023-11-21T00:25:57;93793.22;;;5.36;87.63
61128;BME280;47013;42.664;23.242;2023-11-21T00:28:23;93793.94;;;5.32;87.95
61128;BME280;47013;42.664;23.242;2023-11-21T00:30:48;93783.56;;;5.31;87.64
61128;BME280;47013;42.664;23.242;2023-11-21T00:33:13;93788.94;;;5.31;87.27
61128;BME280;47013;42.664;23.242;2023-11-21T00:35:39;93790.88;;;5.30;87.00
61128;BME280;47013;42.664;23.242;2023-11-21T00:38:04;93789.31;;;5.29;87.57
61128;BME280;47013;42.664;23.242;2023-11-21T00:40:29;93789.72;;;5.28;87.68
61128;BME280;47013;42.664;23.242;2023-11-21T00:42:55;93788.16;;;5.27;87.49
61128;BME280;47013;42.664;23.242;2023-11-21T00:45:21;93778.50;;;5.15;87.20
61128;BME280;47013;42.664;23.242;2023-11-21T00:47:46;93794.59;;;5.08;87.72
61128;BME280;47013;42.664;23.242;2023-11-21T00:50:12;93784.53;;;5.01;88.12
61128;BME280;47013;42.664;23.242;2023-11-21T00:52:37;93782.22;;;4.96;88.36
61128;BME280;47013;42.664;23.242;2023-11-21T00:55:04;93782.59;;;4.95;88.63
61128;BME280;47013;42.664;23.242;2023-11-21T00:57:32;93784.84;;;4.93;88.18
61128;BME280;47013;42.664;23.242;2023-11-21T00:59:57;93771.41;;;4.93;88.95
61128;BME280;47013;42.664;23.242;2023-11-21T01:02:23;93773.72;;;4.91;88.25
61128;BME280;47013;42.664;23.242;2023-11-21T01:04:48;93769.78;;;4.81;88.73
61128;BME280;47013;42.664;23.242;2023-11-21T01:07:14;93764.06;;;4.83;89.94
61128;BME280;47013;42.664;23.242;2023-11-21T01:09:39;93753.34;;;4.86;89.86
61128;BME280;47013;42.664;23.242;2023-11-21T01:12:05;93763.34;;;4.89;89.75
61128;BME280;47013;42.664;23.242;2023-11-21T01:14:30;93751.75;;;4.82;89.62
61128;BME280;47013;42.664;23.242;2023-11-21T01:16:55;93769.88;;;4.88;90.15
61128;BME280;47013;42.664;23.242;2023-11-21T01:19:21;93766.03;;;4.89;90.14
61128;BME280;47013;42.664;23.242;2023-11-21T01:21:46;93769.50;;;4.90;89.33
61128;BME280;47013;42.664;23.242;2023-11-21T01:24:12;93775.63;;;4.90;89.38
61128;BME280;47013;42.664;23.242;2023-11-21T01:26:37;93774.84;;;4.90;89.31
61128;BME280;47013;42.664;23.242;2023-11-21T01:29:03;93771.41;;;4.89;89.31
61128;BME280;47013;42.664;23.242;2023-11-21T01:31:28;93771.38;;;4.86;89.38
61128;BME280;47013;42.664;23.242;2023-11-21T01:33:57;93769.78;;;4.81;89.78
61128;BME280;47013;42.664;23.242;2023-11-21T01:36:30;93771.38;;;4.82;89.35
61128;BME280;47013;42.664;23.242;2023-11-21T01:38:57;93772.47;;;4.81;89.63
61128;BME280;47013;42.664;23.242;2023-11-21T01:41:25;93783.66;;;4.83;89.63
61128;BME280;47013;42.664;23.242;2023-11-21T01:43:52;93780.53;;;4.81;89.63
61128;BME280;47013;42.664;23.242;2023-11-21T01:46:19;93778.22;;;4.80;89.32
61128;BME280;47013;42.664;23.242;2023-11-21T01:48:45;93764.78;;;4.76;89.36
61128;BME280;47013;42.664;23.242;2023-11-21T01:51:11;93756.31;;;4.70;89.46
61128;BME280;47013;42.664;23.242;2023-11-21T01:53:37;93748.19;;;4.63;89.34
61128;BME280;47013;42.664;23.242;2023-11-21T01:56:02;93762.38;;;4.64;89.41
61128;BME280;47013;42.664;23.242;2023-11-21T01:58:30;93761.97;;;4.62;90.03
61128;BME280;47013;42.664;23.242;2023-11-21T02:00:56;93766.97;;;4.63;89.99
61128;BME280;47013;42.664;23.242;2023-11-21T02:03:22;93766.56;;;4.58;89.59
61128;BME280;47013;42.664;23.242;2023-11-21T02:05:47;93768.44;;;4.54;90.18
61128;BME280;47013;42.664;23.242;2023-11-21T02:08:12;93772.22;;;4.49;90.28
61128;BME280;47013;42.664;23.242;2023-11-21T02:10:38;93768.38;;;4.47;90.32
61128;BME280;47013;42.664;23.242;2023-11-21T02:13:03;93764.94;;;4.46;90.87
61128;BME280;47013;42.664;23.242;2023-11-21T02:15:29;93762.63;;;4.44;91.00
61128;BME280;47013;42.664;23.242;2023-11-21T02:17:55;93755.25;;;4.38;91.15
61128;BME280;47013;42.664;23.242;2023-11-21T02:20:23;93759.88;;;4.41;91.30
61128;BME280;47013;42.664;23.242;2023-11-21T02:22:51;93762.94;;;4.39;92.14
61128;BME280;47013;42.664;23.242;2023-11-21T02:25:32;93763.31;;;4.38;91.96
61128;BME280;47013;42.664;23.242;2023-11-21T02:28:00;93763.34;;;4.41;92.17
61128;BME280;47013;42.664;23.242;2023-11-21T02:30:27;93757.97;;;4.41;92.42
61128;BME280;47013;42.664;23.242;2023-11-21T02:32:59;93754.56;;;4.44;92.20
61128;BME280;47013;42.664;23.242;2023-11-21T02:35:25;93752.66;;;4.49;92.37
61128;BME280;47013;42.664;23.242;2023-11-21T02:37:54;93758.81;;;4.49;91.62
61128;BME280;47013;42.664;23.242;2023-11-21T02:40:19;93755.34;;;4.49;90.90
61128;BME280;47013;42.664;23.242;2023-11-21T02:42:50;93759.94;;;4.44;90.88
61128;BME280;47013;42.664;23.242;2023-11-21T02:45:16;93760.66;;;4.41;90.76
61128;BME280;47013;42.664;23.242;2023-11-21T02:47:43;93754.09;;;4.35;90.81
61128;BME280;47013;42.664;23.242;2023-11-21T02:50:08;93755.91;;;4.28;90.81
61128;BME280;47013;42.664;23.242;2023-11-21T02:52:35;93760.09;;;4.22;91.25
61128;BME280;47013;42.664;23.242;2023-11-21T02:55:03;93747.00;;;4.17;91.79
61128;BME280;47013;42.664;23.242;2023-11-21T02:57:29;93757.72;;;4.17;92.04
61128;BME280;47013;42.664;23.242;2023-11-21T02:59:54;93755.72;;;4.06;92.79
61128;BME280;47013;42.664;23.242;2023-11-21T03:02:20;93738.38;;;3.97;93.76
61128;BME280;47013;42.664;23.242;2023-11-21T03:04:46;93745.69;;;4.00;93.92
61128;BME280;47013;42.664;23.242;2023-11-21T03:07:13;93738.81;;;4.02;93.65
61128;BME280;47013;42.664;23.242;2023-11-21T03:09:38;93748.41;;;4.03;93.43
61128;BME280;47013;42.664;23.242;2023-11-21T03:12:04;93753.44;;;4.08;93.97
61128;BME280;47013;42.664;23.242;2023-11-21T03:14:30;93743.88;;;4.11;93.13
61128;BME280;47013;42.664;23.242;2023-11-21T03:16:55;93745.06;;;4.13;92.93
61128;BME280;47013;42.664;23.242;2023-11-21T03:19:21;93755.03;;;4.17;92.97
61128;BME280;47013;42.664;23.242;2023-11-21T03:21:47;93757.00;;;4.20;92.69
61128;BME280;47013;42.664;23.242;2023-11-21T03:24:12;93759.72;;;4.23;92.28
61128;BME280;47013;42.664;23.242;2023-11-21T03:26:37;93765.09;;;4.23;92.99
61128;BME280;47013;42.664;23.242;2023-11-21T03:29:03;93768.94;;;4.26;92.30
61128;BME280;47013;42.664;23.242;2023-11-21T03:31:30;93763.56;;;4.26;92.43
61128;BME280;47013;42.664;23.242;2023-11-21T03:33:55;93760.13;;;4.25;92.27
61128;BME280;47013;42.664;23.242;2023-11-21T03:36:21;93768.97;;;4.29;91.91
61128;BME280;47013;42.664;23.242;2023-11-21T03:38:47;93765.09;;;4.23;92.22
61128;BME280;47013;42.664;23.242;2023-11-21T03:41:13;93751.59;;;4.16;92.70
61128;BME280;47013;42.664;23.242;2023-11-21T03:43:39;93739.66;;;4.10;93.82
61128;BME280;47013;42.664;23.242;2023-11-21T03:46:05;93738.16;;;4.12;93.30
61128;BME280;47013;42.664;23.242;2023-11-21T03:48:30;93735.88;;;4.14;93.13
61128;BME280;47013;42.664;23.242;2023-11-21T03:50:58;93729.81;;;4.21;93.27
61128;BME280;47013;42.664;23.242;2023-11-21T03:53:23;93733.66;;;4.24;93.55
61128;BME280;47013;42.664;23.242;2023-11-21T03:55:49;93732.88;;;4.23;93.39
61128;BME280;47013;42.664;23.242;2023-11-21T03:58:15;93734.28;;;4.10;93.88
61128;BME280;47013;42.664;23.242;2023-11-21T04:00:40;93745.13;;;4.17;94.63
61128;BME280;47013;42.664;23.242;2023-11-21T04:03:06;93735.91;;;4.18;93.69
61128;BME280;47013;42.664;23.242;2023-11-21T04:05:32;93737.00;;;4.13;94.00
61128;BME280;47013;42.664;23.242;2023-11-21T04:07:57;93740.16;;;4.19;93.62
61128;BME280;47013;42.664;23.242;2023-11-21T04:10:23;93729.44;;;4.23;93.62
61128;BME280;47013;42.664;23.242;2023-11-21T04:12:48;93734.44;;;4.24;92.82
61128;BME280;47013;42.664;23.242;2023-11-21T04:15:14;93729.44;;;4.23;92.62
61128;BME280;47013;42.664;23.242;2023-11-21T04:17:40;93731.31;;;4.19;93.15
61128;BME280;47013;42.664;23.242;2023-11-21T04:20:07;93732.81;;;4.16;93.02
61128;BME280;47013;42.664;23.242;2023-11-21T04:22:41;93733.25;;;4.18;93.66
61128;BME280;47013;42.664;23.242;2023-11-21T04:25:13;93730.56;;;4.18;93.43
61128;BME280;47013;42.664;23.242;2023-11-21T04:27:42;93728.63;;;4.19;93.76
61128;BME280;47013;42.664;23.242;2023-11-21T04:30:10;93729.06;;;4.24;93.75
61128;BME280;47013;42.664;23.242;2023-11-21T04:32:35;93732.91;;;4.27;93.93
61128;BME280;47013;42.664;23.242;2023-11-21T04:35:01;93735.59;;;4.27;93.24
61128;BME280;47013;42.664;23.242;2023-11-21T04:37:26;93729.84;;;4.28;92.47
61128;BME280;47013;42.664;23.242;2023-11-21T04:39:52;93730.63;;;4.29;92.32
61128;BME280;47013;42.664;23.242;2023-11-21T04:42:17;93734.88;;;4.30;92.09
61128;BME280;47013;42.664;23.242;2023-11-21T04:44:42;93729.06;;;4.24;92.38
61128;BME280;47013;42.664;23.242;2023-11-21T04:47:09;93734.44;;;4.24;92.34
61128;BME280;47013;42.664;23.242;2023-11-21T04:49:34;93742.47;;;4.24;92.96
61128;BME280;47013;42.664;23.242;2023-11-21T04:52:00;93746.31;;;4.23;92.49
61128;BME280;47013;42.664;23.242;2023-11-21T04:54:26;93744.75;;;4.22;92.98
61128;BME280;47013;42.664;23.242;2023-11-21T04:56:52;93735.53;;;4.20;93.26
61128;BME280;47013;42.664;23.242;2023-11-21T04:59:17;93745.53;;;4.23;93.47
61128;BME280;47013;42.664;23.242;2023-11-21T05:01:44;93740.94;;;4.23;93.60
61128;BME280;47013;42.664;23.242;2023-11-21T05:04:10;93748.59;;;4.21;93.63
61128;BME280;47013;42.664;23.242;2023-11-21T05:06:35;93746.69;;;4.22;93.12
61128;BME280;47013;42.664;23.242;2023-11-21T05:09:00;93738.25;;;4.23;94.12
61128;BME280;47013;42.664;23.242;2023-11-21T05:11:29;93727.91;;;4.22;94.00
61128;BME280;47013;42.664;23.242;2023-11-21T05:13:54;93729.47;;;4.26;94.03
61128;BME280;47013;42.664;23.242;2023-11-21T05:16:21;93722.94;;;4.27;94.07
61128;BME280;47013;42.664;23.242;2023-11-21T05:18:47;93732.53;;;4.28;94.04
61128;BME280;47013;42.664;23.242;2023-11-21T05:21:12;93734.88;;;4.30;94.06
61128;BME280;47013;42.664;23.242;2023-11-21T05:23:38;93732.59;;;4.32;93.96
61128;BME280;47013;42.664;23.242;2023-11-21T05:26:03;93731.78;;;4.28;94.04
61128;BME280;47013;42.664;23.242;2023-11-21T05:28:29;93738.34;;;4.34;94.54
61128;BME280;47013;42.664;23.242;2023-11-21T05:30:54;93749.09;;;4.34;94.27
61128;BME280;47013;42.664;23.242;2023-11-21T05:33:20;93740.66;;;4.35;94.21
61128;BME280;47013;42.664;23.242;2023-11-21T05:35:45;93739.16;;;4.38;93.78
61128;BME280;47013;42.664;23.242;2023-11-21T05:38:11;93742.13;;;4.29;93.88
61128;BME280;47013;42.664;23.242;2023-11-21T05:40:36;93747.94;;;4.31;94.27
61128;BME280;47013;42.664;23.242;2023-11-21T05:43:02;93751.78;;;4.34;94.53
61128;BME280;47013;42.664;23.242;2023-11-21T05:45:27;93754.84;;;4.36;94.49
61128;BME280;47013;42.664;23.242;2023-11-21T05:47:54;93741.84;;;4.38;94.12
61128;BME280;47013;42.664;23.242;2023-11-21T05:50:20;93739.81;;;4.28;94.28
61128;BME280;47013;42.664;23.242;2023-11-21T05:52:47;93737.59;;;4.33;94.95
61128;BME280;47013;42.664;23.242;2023-11-21T05:55:13;93724.94;;;4.34;94.96
61128;BME280;47013;42.664;23.242;2023-11-21T05:57:40;93731.09;;;4.38;94.36
61128;BME280;47013;42.664;23.242;2023-11-21T06:00:07;93734.94;;;4.40;94.46
61128;BME280;47013;42.664;23.242;2023-11-21T06:02:39;93727.66;;;4.41;94.40
61128;BME280;47013;42.664;23.242;2023-11-21T06:05:08;93737.31;;;4.46;93.80
61128;BME280;47013;42.664;23.242;2023-11-21T06:07:34;93736.19;;;4.50;94.64
61128;BME280;47013;42.664;23.242;2023-11-21T06:10:07;93742.34;;;4.54;94.33
61128;BME280;47013;42.664;23.242;2023-11-21T06:12:37;93757.25;;;4.44;93.79
61128;BME280;47013;42.664;23.242;2023-11-21T06:15:04;93753.78;;;4.44;94.75
61128;BME280;47013;42.664;23.242;2023-11-21T06:17:37;93755.91;;;4.24;95.06
61128;BME280;47013;42.664;23.242;2023-11-21T06:20:04;93763.25;;;4.31;96.06
61128;BME280;47013;42.664;23.242;2023-11-21T06:22:44;93772.34;;;4.19;96.08
61128;BME280;47013;42.664;23.242;2023-11-21T06:25:11;93767.41;;;4.25;96.60
61128;BME280;47013;42.664;23.242;2023-11-21T06:27:40;93764.06;;;4.35;96.37
61128;BME280;47013;42.664;23.242;2023-11-21T06:30:07;93760.66;;;4.41;95.92
61128;BME280;47013;42.664;23.242;2023-11-21T06:32:34;93761.84;;;4.44;95.75
61128;BME280;47013;42.664;23.242;2023-11-21T06:35:01;93758.84;;;4.53;95.44
61128;BME280;47013;42.664;23.242;2023-11-21T06:37:27;93765.44;;;4.62;95.05
61128;BME280;47013;42.664;23.242;2023-11-21T06:39:53;93776.47;;;4.50;95.67
61128;BME280;47013;42.664;23.242;2023-11-21T06:42:19;93774.22;;;4.56;96.18
61128;BME280;47013;42.664;23.242;2023-11-21T06:44:46;93771.44;;;4.45;96.28
61128;BME280;47013;42.664;23.242;2023-11-21T06:47:11;93778.53;;;4.27;97.06
61128;BME280;47013;42.664;23.242;2023-11-21T06:49:37;93782.19;;;4.45;100.00
61128;BME280;47013;42.664;23.242;2023-11-21T06:52:04;93787.84;;;4.36;100.00
61128;BME280;47013;42.664;23.242;2023-11-21T06:54:30;93786.81;;;4.48;99.17
61128;BME280;47013;42.664;23.242;2023-11-21T06:56:56;93783.13;;;4.67;100.00
61128;BME280;47013;42.664;23.242;2023-11-21T06:59:21;93788.09;;;4.68;100.00
61128;BME280;47013;42.664;23.242;2023-11-21T07:01:47;93774.81;;;4.83;100.00
61128;BME280;47013;42.664;23.242;2023-11-21T07:04:12;93779.00;;;4.80;98.66
61128;BME280;47013;42.664;23.242;2023-11-21T07:06:37;93766.97;;;4.63;97.54
61128;BME280;47013;42.664;23.242;2023-11-21T07:09:03;93783.19;;;4.74;98.28
61128;BME280;47013;42.664;23.242;2023-11-21T07:11:28;93773.97;;;4.75;98.27
61128;BME280;47013;42.664;23.242;2023-11-21T07:13:54;93762.16;;;4.83;97.93
61128;BME280;47013;42.664;23.242;2023-11-21T07:16:19;93755.34;;;4.96;97.72
61128;BME280;47013;42.664;23.242;2023-11-21T07:18:45;93761.13;;;5.02;96.62
61128;BME280;47013;42.664;23.242;2023-11-21T07:21:10;93759.31;;;5.17;95.88
61128;BME280;47013;42.664;23.242;2023-11-21T07:23:37;93770.13;;;5.31;95.15
61128;BME280;47013;42.664;23.242;2023-11-21T07:26:03;93771.75;;;5.43;94.21
61128;BME280;47013;42.664;23.242;2023-11-21T07:28:31;93768.72;;;5.55;93.97
61128;BME280;47013;42.664;23.242;2023-11-21T07:30:57;93769.88;;;5.57;93.64
61128;BME280;47013;42.664;23.242;2023-11-21T07:33:22;93776.47;;;5.67;93.17
61128;BME280;47013;42.664;23.242;2023-11-21T07:35:47;93776.53;;;5.78;93.42
61128;BME280;47013;42.664;23.242;2023-11-21T07:38:13;93776.09;;;5.69;92.36
61128;BME280;47013;42.664;23.242;2023-11-21T07:40:38;93775.00;;;5.80;92.69
61128;BME280;47013;42.664;23.242;2023-11-21T07:43:04;93777.63;;;5.70;92.39
61128;BME280;47013;42.664;23.242;2023-11-21T07:45:30;93763.06;;;5.78;93.18
61128;BME280;47013;42.664;23.242;2023-11-21T07:47:56;93774.16;;;5.69;92.87
61128;BME280;47013;42.664;23.242;2023-11-21T07:50:22;93746.06;;;5.52;93.85
61128;BME280;47013;42.664;23.242;2023-11-21T07:52:48;93766.13;;;5.76;93.82
61128;BME280;47013;42.664;23.242;2023-11-21T07:55:15;93755.00;;;5.81;92.31
61128;BME280;47013;42.664;23.242;2023-11-21T07:57:40;93751.91;;;5.76;92.09
61128;BME280;47013;42.664;23.242;2023-11-21T08:00:06;93752.38;;;5.96;92.06
61128;BME280;47013;42.664;23.242;2023-11-21T08:02:34;93755.88;;;6.07;91.73
61128;BME280;47013;42.664;23.242;2023-11-21T08:05:00;93752.81;;;6.12;90.92
61128;BME280;47013;42.664;23.242;2023-11-21T08:07:26;93757.41;;;6.11;90.21
61128;BME280;47013;42.664;23.242;2023-11-21T08:09:51;93745.88;;;6.04;90.56
61128;BME280;47013;42.664;23.242;2023-11-21T08:12:18;93755.16;;;6.13;90.99
61128;BME280;47013;42.664;23.242;2023-11-21T08:14:45;93745.16;;;6.21;91.06
61128;BME280;47013;42.664;23.242;2023-11-21T08:17:11;93754.03;;;6.25;89.81
61128;BME280;47013;42.664;23.242;2023-11-21T08:19:36;93754.41;;;6.38;88.61
61128;BME280;47013;42.664;23.242;2023-11-21T08:22:03;93746.34;;;6.59;90.49
61128;BME280;47013;42.664;23.242;2023-11-21T08:24:28;93747.50;;;6.76;88.11
61128;BME280;47013;42.664;23.242;2023-11-21T08:26:54;93750.56;;;6.89;87.42
61128;BME280;47013;42.664;23.242;2023-11-21T08:29:19;93758.66;;;7.03;86.48
61128;BME280;47013;42.664;23.242;2023-11-21T08:31:45;93745.16;;;7.14;85.91
61128;BME280;47013;42.664;23.242;2023-11-21T08:34:12;93748.25;;;7.23;84.76
61128;BME280;47013;42.664;23.242;2023-11-21T08:36:44;93744.75;;;7.36;84.77
61128;BME280;47013;42.664;23.242;2023-11-21T08:39:10;93741.25;;;7.47;84.46
61128;BME280;47013;42.664;23.242;2023-11-21T08:41:36;93751.25;;;7.53;83.82
61128;BME280;47013;42.664;23.242;2023-11-21T08:44:02;93744.03;;;7.18;84.67
61128;BME280;47013;42.664;23.242;2023-11-21T08:46:27;93750.91;;;7.37;85.39
61128;BME280;47013;42.664;23.242;2023-11-21T08:48:53;93736.22;;;7.49;84.68
61128;BME280;47013;42.664;23.242;2023-11-21T08:51:18;93742.72;;;7.65;83.82
61128;BME280;47013;42.664;23.242;2023-11-21T08:53:44;93743.47;;;7.77;83.63
61128;BME280;47013;42.664;23.242;2023-11-21T08:56:15;93733.78;;;7.86;83.03
61128;BME280;47013;42.664;23.242;2023-11-21T08:58:40;93724.97;;;7.68;81.17
61128;BME280;47013;42.664;23.242;2023-11-21T09:01:06;93716.44;;;7.84;82.60
61128;BME280;47013;42.664;23.242;2023-11-21T09:03:32;93710.69;;;7.82;82.28
61128;BME280;47013;42.664;23.242;2023-11-21T09:06:00;93703.38;;;7.75;81.40
61128;BME280;47013;42.664;23.242;2023-11-21T09:08:25;93701.78;;;7.85;81.81
61128;BME280;47013;42.664;23.242;2023-11-21T09:10:50;93695.94;;;7.97;81.44
61128;BME280;47013;42.664;23.242;2023-11-21T09:13:17;93700.53;;;8.04;81.10
61128;BME280;47013;42.664;23.242;2023-11-21T09:15:43;93695.50;;;8.09;80.60
61128;BME280;47013;42.664;23.242;2023-11-21T09:18:14;93680.00;;;8.20;79.79
61128;BME280;47013;42.664;23.242;2023-11-21T09:20:41;93673.72;;;8.31;78.92
61128;BME280;47013;42.664;23.242;2023-11-21T09:23:07;93672.91;;;8.41;78.40
61128;BME280;47013;42.664;23.242;2023-11-21T09:25:33;93664.81;;;8.41;78.80
61128;BME280;47013;42.664;23.242;2023-11-21T09:27:58;93655.50;;;8.45;78.87
61128;BME280;47013;42.664;23.242;2023-11-21T09:30:24;93645.94;;;8.37;78.56
61128;BME280;47013;42.664;23.242;2023-11-21T09:32:50;93633.19;;;8.38;78.54
61128;BME280;47013;42.664;23.242;2023-11-21T09:35:16;93630.06;;;8.46;78.52
61128;BME280;47013;42.664;23.242;2023-11-21T09:37:46;93635.75;;;8.55;78.00
61128;BME280;47013;42.664;23.242;2023-11-21T09:40:12;93626.06;;;8.62;77.44
61128;BME280;47013;42.664;23.242;2023-11-21T09:42:40;93629.88;;;8.64;77.11
61128;BME280;47013;42.664;23.242;2023-11-21T09:47:52;93607.63;;;8.91;75.19
61128;BME280;47013;42.664;23.242;2023-11-21T09:50:18;93601.97;;;8.78;74.67
61128;BME280;47013;42.664;23.242;2023-11-21T09:55:27;93590.00;;;8.75;75.34
61128;BME280;47013;42.664;23.242;2023-11-21T09:58:00;93590.94;;;8.58;75.65
61128;BME280;47013;42.664;23.242;2023-11-21T10:00:27;93597.22;;;8.89;75.75
61128;BME280;47013;42.664;23.242;2023-11-21T10:02:55;93593.00;;;9.19;74.83
61128;BME280;47013;42.664;23.242;2023-11-21T10:05:22;93588.06;;;9.44;73.81
61128;BME280;47013;42.664;23.242;2023-11-21T10:07:49;93577.41;;;9.60;72.35
61128;BME280;47013;42.664;23.242;2023-11-21T10:10:18;93567.88;;;9.79;71.85
61128;BME280;47013;42.664;23.242;2023-11-21T10:12:45;93567.88;;;10.06;70.68
61128;BME280;47013;42.664;23.242;2023-11-21T10:15:14;93557.94;;;10.23;70.12
61128;BME280;47013;42.664;23.242;2023-11-21T10:17:43;93566.69;;;10.34;68.59
61128;BME280;47013;42.664;23.242;2023-11-21T10:20:13;93564.13;;;10.47;68.20
61128;BME280;47013;42.664;23.242;2023-11-21T10:22:40;93546.97;;;10.53;67.37
61128;BME280;47013;42.664;23.242;2023-11-21T10:25:09;93550.06;;;10.55;66.59
61128;BME280;47013;42.664;23.242;2023-11-21T10:27:36;93556.72;;;10.51;66.82
61128;BME280;47013;42.664;23.242;2023-11-21T10:30:02;93552.03;;;10.51;66.77
61128;BME280;47013;42.664;23.242;2023-11-21T10:32:29;93562.13;;;10.27;66.38
61128;BME280;47013;42.664;23.242;2023-11-21T10:34:59;93556.81;;;10.20;68.04
61128;BME280;47013;42.664;23.242;2023-11-21T10:37:32;93546.72;;;10.21;67.89
61128;BME280;47013;42.664;23.242;2023-11-21T10:40:00;93550.94;;;10.25;68.21
61128;BME280;47013;42.664;23.242;2023-11-21T10:42:26;93538.22;;;10.22;67.36
61128;BME280;47013;42.664;23.242;2023-11-21T10:44:53;93537.38;;;10.25;67.20
61128;BME280;47013;42.664;23.242;2023-11-21T10:47:19;93546.25;;;10.29;67.38
61128;BME280;47013;42.664;23.242;2023-11-21T10:49:48;93539.66;;;10.30;68.12
61128;BME280;47013;42.664;23.242;2023-11-21T10:52:13;93537.91;;;10.17;67.73
61128;BME280;47013;42.664;23.242;2023-11-21T10:54:43;93537.63;;;9.84;68.60
61128;BME280;47013;42.664;23.242;2023-11-21T10:57:10;93532.97;;;9.85;69.64
61128;BME280;47013;42.664;23.242;2023-11-21T10:59:36;93527.47;;;9.92;69.42
61128;BME280;47013;42.664;23.242;2023-11-21T11:02:16;93526.63;;;9.95;69.18
61128;BME280;47013;42.664;23.242;2023-11-21T11:04:47;93516.84;;;10.01;69.95
61128;BME280;47013;42.664;23.242;2023-11-21T11:07:14;93525.72;;;10.05;70.00
61128;BME280;47013;42.664;23.242;2023-11-21T11:09:41;93520.28;;;10.05;68.13
61128;BME280;47013;42.664;23.242;2023-11-21T11:12:08;93520.28;;;10.05;68.73
61128;BME280;47013;42.664;23.242;2023-11-21T11:14:35;93508.22;;;10.10;69.11
61128;BME280;47013;42.664;23.242;2023-11-21T11:17:01;93489.59;;;10.12;74.82
61128;BME280;47013;42.664;23.242;2023-11-21T11:19:27;93491.84;;;9.93;68.75
61128;BME280;47013;42.664;23.242;2023-11-21T11:27:40;93484.22;;;9.61;70.17
61128;BME280;47013;42.664;23.242;2023-11-21T11:30:26;93479.88;;;9.40;71.39
61128;BME280;47013;42.664;23.242;2023-11-21T11:33:14;93475.47;;;9.50;72.32
61128;BME280;47013;42.664;23.242;2023-11-21T11:38:36;93482.00;;;9.80;70.08
61128;BME280;47013;42.664;23.242;2023-11-21T11:41:03;93493.47;;;9.87;69.21
61128;BME280;47013;42.664;23.242;2023-11-21T11:43:29;93494.19;;;9.91;69.35
61128;BME280;47013;42.664;23.242;2023-11-21T11:45:57;93495.25;;;9.97;70.60
61128;BME280;47013;42.664;23.242;2023-11-21T11:48:24;93487.06;;;10.01;69.34
61128;BME280;47013;42.664;23.242;2023-11-21T11:51:09;93489.00;;;10.00;70.52
61128;BME280;47013;42.664;23.242;2023-11-21T11:53:37;93477.19;;;9.91;73.05
61128;BME280;47013;42.664;23.242;2023-11-21T11:56:26;93482.19;;;9.92;74.48
61128;BME280;47013;42.664;23.242;2023-11-21T11:58:54;93480.59;;;9.95;76.53
61128;BME280;47013;42.664;23.242;2023-11-21T12:01:20;93489.91;;;9.94;76.29
61128;BME280;47013;42.664;23.242;2023-11-21T12:06:40;93488.38;;;9.93;77.60
61128;BME280;47013;42.664;23.242;2023-11-21T12:09:06;93486.00;;;9.95;79.18
61128;BME280;47013;42.664;23.242;2023-11-21T12:11:32;93500.72;;;9.94;79.23
61128;BME280;47013;42.664;23.242;2023-11-21T12:13:58;93499.22;;;9.93;79.23
61128;BME280;47013;42.664;23.242;2023-11-21T12:16:25;93505.03;;;9.91;81.08
61128;BME280;47013;42.664;23.242;2023-11-21T12:18:53;93493.81;;;9.89;81.69
61128;BME280;47013;42.664;23.242;2023-11-21T12:21:19;93483.88;;;9.83;77.41
61128;BME280;47013;42.664;23.242;2023-11-21T12:23:45;93483.13;;;9.82;78.13
61128;BME280;47013;42.664;23.242;2023-11-21T12:26:12;93490.47;;;9.82;80.76
61128;BME280;47013;42.664;23.242;2023-11-21T12:28:38;93486.59;;;9.83;81.39
61128;BME280;47013;42.664;23.242;2023-11-21T12:31:04;93496.31;;;9.80;80.51
61128;BME280;47013;42.664;23.242;2023-11-21T12:33:35;93495.56;;;9.76;80.30
61128;BME280;47013;42.664;23.242;2023-11-21T12:36:00;93490.22;;;9.72;81.64
61128;BME280;47013;42.664;23.242;2023-11-21T12:38:33;93479.94;;;9.64;80.79
61128;BME280;47013;42.664;23.242;2023-11-21T12:40:59;93477.22;;;9.64;82.95
61128;BME280;47013;42.664;23.242;2023-11-21T12:43:25;93471.44;;;9.62;81.71
61128;BME280;47013;42.664;23.242;2023-11-21T12:45:50;93471.09;;;9.60;82.12
61128;BME280;47013;42.664;23.242;2023-11-21T12:48:18;93458.31;;;9.60;82.86
61128;BME280;47013;42.664;23.242;2023-11-21T12:50:49;93448.66;;;9.59;83.29
61128;BME280;47013;42.664;23.242;2023-11-21T12:53:18;93458.31;;;9.60;82.27
61128;BME280;47013;42.664;23.242;2023-11-21T12:55:44;93450.97;;;9.61;84.69
61128;BME280;47013;42.664;23.242;2023-11-21T12:58:15;93447.84;;;9.62;82.53
61128;BME280;47013;42.664;23.242;2023-11-21T13:00:47;93448.66;;;9.59;82.18
61128;BME280;47013;42.664;23.242;2023-11-21T13:03:15;93436.31;;;9.58;80.70
61128;BME280;47013;42.664;23.242;2023-11-21T13:05:43;93433.59;;;9.58;80.64
61128;BME280;47013;42.664;23.242;2023-11-21T13:08:11;93441.72;;;9.58;78.41
61128;BME280;47013;42.664;23.242;2023-11-21T13:10:44;93444.03;;;9.60;79.47
61128;BME280;47013;42.664;23.242;2023-11-21T13:13:12;93428.97;;;9.59;79.73
61128;BME280;47013;42.664;23.242;2023-11-21T13:15:55;93443.25;;;9.59;80.00